Time;durP1;ratioP1;P1;durP2;ratioP2;P2;SDS_P1;SDS_P2;PMS_P1;PMS_P2;Temp;Humidity;BMP_temperature;BMP_pressure;BME280_temperature;BME280_humidity;BME280_pressure;Samples;Min_cycle;Max_cycle;Signal;HPM_P1;HPM_P2
2022/11/18 00:00:56;;;;;;;6.07;4.32;;;;;;;;;;10477499;28;20221;-71
2022/11/18 00:05:57;;;;;;;5.65;3.83;;;;;;;;;;10506533;28;20324;-71
2022/11/18 00:11:03;;;;;;;5.97;4.28;;;;;;;;;;10504392;28;20651;-71
2022/11/18 00:16:08;;;;;;;5.97;4.25;;;;;;;;;;10505903;28;20591;-71
2022/11/18 00:21:10;;;;;;;4.88;4.13;;;;;;;;;;10506776;28;20344;-71
2022/11/18 00:26:12;;;;;;;4.55;4.10;;;;;;;;;;10490831;28;20780;-71
2022/11/18 00:31:14;;;;;;;6.25;4.55;;;;;;;;;;10489432;28;20221;-70
2022/11/18 00:36:15;;;;;;;5.90;5.30;;;;;;;;;;10488191;28;20217;-71
2022/11/18 00:41:16;;;;;;;8.20;4.85;;;;;;;;;;10492534;28;20221;-70
2022/11/18 00:46:17;;;;;;;8.02;5.07;;;;;;;;;;10503542;28;20243;-70
2022/11/18 00:51:18;;;;;;;7.68;5.72;;;;;;;;;;10489391;28;20214;-70
2022/11/18 00:56:19;;;;;;;5.25;4.75;;;;;;;;;;10502348;28;20744;-70
2022/11/18 01:01:21;;;;;;;10.00;4.45;;;;;;;;;;10503537;28;20335;-70
2022/11/18 01:06:22;;;;;;;8.23;4.60;;;;;;;;;;10484061;28;20696;-68
2022/11/18 01:16:43;;;;;;;5.85;4.45;;;;;;;;;;10483253;28;20217;-70
2022/11/18 01:21:45;;;;;;;5.00;4.60;;;;;;;;;;10506287;28;20370;-70
2022/11/18 01:26:46;;;;;;;8.68;5.05;;;;;;;;;;10473621;28;20222;-70
2022/11/18 01:31:47;;;;;;;10.02;5.43;;;;;;;;;;10474167;28;20213;-70
2022/11/18 01:36:48;;;;;;;8.43;6.13;;;;;;;;;;10504664;28;20720;-70
2022/11/18 01:41:49;;;;;;;9.23;6.45;;;;;;;;;;10499032;28;20758;-70
2022/11/18 01:46:50;;;;;;;9.20;6.78;;;;;;;;;;10500784;28;20213;-70
2022/11/18 01:51:55;;;;;;;7.93;5.57;;;;;;;;;;10502309;28;20247;-71
2022/11/18 01:56:59;;;;;;;10.07;6.50;;;;;;;;;;10501416;28;20324;-70
2022/11/18 02:02:02;;;;;;;8.23;5.80;;;;;;;;;;10499346;28;20597;-70
2022/11/18 02:07:04;;;;;;;8.80;4.88;;;;;;;;;;10490294;28;20222;-71
2022/11/18 02:12:06;;;;;;;7.45;5.15;;;;;;;;;;10500137;28;20285;-71
2022/11/18 02:17:26;;;;;;;9.70;5.88;;;;;;;;;;10501594;28;20216;-71
2022/11/18 02:22:36;;;;;;;9.82;5.72;;;;;;;;;;10444206;28;20218;-71
2022/11/18 02:27:52;;;;;;;8.75;5.28;;;;;;;;;;10455490;28;20230;-71
2022/11/18 02:32:56;;;;;;;7.57;4.85;;;;;;;;;;10441197;28;20222;-71
2022/11/18 02:37:59;;;;;;;9.95;5.55;;;;;;;;;;10456843;28;20246;-71
2022/11/18 02:43:08;;;;;;;10.98;5.70;;;;;;;;;;10440781;28;20217;-71
2022/11/18 02:48:10;;;;;;;11.75;7.63;;;;;;;;;;10453266;28;20644;-71
2022/11/18 02:53:13;;;;;;;6.40;5.38;;;;;;;;;;10438373;28;20269;-71
2022/11/18 02:58:15;;;;;;;9.05;6.85;;;;;;;;;;10443474;28;20207;-71
2022/11/18 03:03:36;;;;;;;9.52;5.38;;;;;;;;;;10450795;28;20685;-69
2022/11/18 03:08:45;;;;;;;11.25;6.07;;;;;;;;;;10443287;28;20213;-70
2022/11/18 03:14:07;;;;;;;15.32;7.18;;;;;;;;;;10458591;28;20223;-70
2022/11/18 03:19:17;;;;;;;10.48;6.18;;;;;;;;;;10467898;28;20701;-71
2022/11/18 03:24:18;;;;;;;11.45;6.18;;;;;;;;;;10486951;28;20202;-70
2022/11/18 03:29:28;;;;;;;13.95;7.75;;;;;;;;;;10482314;28;20697;-70
2022/11/18 03:34:32;;;;;;;12.18;7.15;;;;;;;;;;10479163;28;20209;-70
2022/11/18 03:39:36;;;;;;;13.48;6.90;;;;;;;;;;10483037;28;20228;-71
2022/11/18 03:44:38;;;;;;;11.50;5.93;;;;;;;;;;10495483;28;20701;-70
2022/11/18 03:49:44;;;;;;;6.43;4.55;;;;;;;;;;10482076;28;20206;-69
2022/11/18 03:54:47;;;;;;;11.18;6.70;;;;;;;;;;10495004;28;20220;-70
2022/11/18 03:59:52;;;;;;;12.20;5.97;;;;;;;;;;10498411;28;20209;-69
2022/11/18 04:04:55;;;;;;;11.65;5.93;;;;;;;;;;10482660;28;20604;-70
2022/11/18 04:09:56;;;;;;;13.23;6.65;;;;;;;;;;10481689;28;20220;-70
2022/11/18 04:14:58;;;;;;;13.88;7.32;;;;;;;;;;10477238;28;20275;-69
2022/11/18 04:20:00;;;;;;;14.45;7.75;;;;;;;;;;10497575;28;20225;-70
2022/11/18 04:25:01;;;;;;;11.35;7.43;;;;;;;;;;10493319;28;20222;-70
2022/11/18 04:30:02;;;;;;;17.77;8.07;;;;;;;;;;10484591;28;20596;-70
2022/11/18 04:35:03;;;;;;;12.93;6.13;;;;;;;;;;10488560;28;20263;-69
2022/11/18 04:40:05;;;;;;;19.00;8.15;;;;;;;;;;10491622;28;20190;-68
2022/11/18 04:45:06;;;;;;;21.50;10.57;;;;;;;;;;10488914;28;20681;-69
2022/11/18 04:50:08;;;;;;;20.08;8.98;;;;;;;;;;10500997;28;20174;-69
2022/11/18 04:55:09;;;;;;;20.60;9.75;;;;;;;;;;10507096;28;20193;-69
2022/11/18 05:00:10;;;;;;;25.55;10.20;;;;;;;;;;10491689;28;20649;-70
2022/11/18 05:05:11;;;;;;;19.02;9.77;;;;;;;;;;10509515;28;20329;-69
2022/11/18 05:10:13;;;;;;;26.40;10.07;;;;;;;;;;10506917;28;20223;-70
2022/11/18 05:15:14;;;;;;;21.13;8.70;;;;;;;;;;10488330;28;20206;-69
2022/11/18 05:20:16;;;;;;;17.63;8.80;;;;;;;;;;10498489;28;20237;-70
2022/11/18 05:25:17;;;;;;;19.30;8.88;;;;;;;;;;10476360;28;20205;-70
2022/11/18 05:30:18;;;;;;;21.95;9.13;;;;;;;;;;10475580;28;20257;-69
2022/11/18 05:35:20;;;;;;;20.75;9.70;;;;;;;;;;10496255;28;20981;-70
2022/11/18 05:40:21;;;;;;;20.75;9.35;;;;;;;;;;10474115;28;20609;-70
2022/11/18 05:45:23;;;;;;;18.17;9.23;;;;;;;;;;10487040;28;20243;-70
2022/11/18 05:50:24;;;;;;;22.42;9.05;;;;;;;;;;10483530;28;20313;-70
2022/11/18 05:55:27;;;;;;;16.77;9.35;;;;;;;;;;10483175;28;20217;-69
2022/11/18 06:00:29;;;;;;;14.68;7.10;;;;;;;;;;10495692;28;20261;-69
2022/11/18 06:05:30;;;;;;;20.48;9.30;;;;;;;;;;10483297;28;20257;-70
2022/11/18 06:10:35;;;;;;;14.30;7.25;;;;;;;;;;10486207;28;20224;-70
2022/11/18 06:15:41;;;;;;;18.25;8.70;;;;;;;;;;10486817;28;20214;-70
2022/11/18 06:20:43;;;;;;;18.63;8.95;;;;;;;;;;10478348;28;20210;-70
2022/11/18 06:25:44;;;;;;;13.07;7.30;;;;;;;;;;10462260;28;20263;-70
2022/11/18 06:30:45;;;;;;;13.80;8.13;;;;;;;;;;10454651;28;20227;-70
2022/11/18 06:35:46;;;;;;;11.23;6.55;;;;;;;;;;10458435;28;20677;-70
2022/11/18 06:40:47;;;;;;;10.95;6.85;;;;;;;;;;10446874;28;20213;-70
2022/11/18 06:46:54;;;;;;;14.02;7.20;;;;;;;;;;10456187;28;20264;-70
2022/11/18 06:51:10;;;;;;;17.35;8.05;;;;;;;;;;10453171;28;20230;-69
2022/11/18 06:56:12;;;;;;;17.85;7.82;;;;;;;;;;10455105;28;20880;-70
2022/11/18 07:01:18;;;;;;;20.08;8.45;;;;;;;;;;10454653;28;20214;-70
2022/11/18 07:06:23;;;;;;;18.67;9.68;;;;;;;;;;10457672;28;20303;-70
2022/11/18 07:11:25;;;;;;;26.48;10.93;;;;;;;;;;10444207;28;20252;-70
2022/11/18 07:16:26;;;;;;;19.10;8.95;;;;;;;;;;10432659;28;20225;-68
2022/11/18 07:21:28;;;;;;;21.88;9.75;;;;;;;;;;10465040;28;20236;-70
2022/11/18 07:26:29;;;;;;;22.70;10.68;;;;;;;;;;10482732;28;20229;-70
2022/11/18 07:31:31;;;;;;;18.20;9.88;;;;;;;;;;10477315;28;20785;-70
2022/11/18 07:36:32;;;;;;;20.08;10.63;;;;;;;;;;10485963;28;20220;-69
2022/11/18 07:41:33;;;;;;;19.17;9.90;;;;;;;;;;10491175;28;20763;-69
2022/11/18 07:46:36;;;;;;;21.52;10.38;;;;;;;;;;10487295;28;20222;-69
2022/11/18 07:51:38;;;;;;;25.23;10.85;;;;;;;;;;10491219;28;20292;-70
2022/11/18 07:56:39;;;;;;;17.48;8.85;;;;;;;;;;10479658;28;20217;-70
2022/11/18 08:01:40;;;;;;;15.55;7.40;;;;;;;;;;10479750;28;20216;-70
2022/11/18 08:06:42;;;;;;;11.20;6.82;;;;;;;;;;10495078;28;20721;-70
2022/11/18 08:11:43;;;;;;;13.80;6.13;;;;;;;;;;10486105;28;20244;-68
2022/11/18 08:16:44;;;;;;;12.93;7.40;;;;;;;;;;10490090;28;20260;-69
2022/11/18 08:21:45;;;;;;;10.45;6.47;;;;;;;;;;10482760;28;20763;-68
2022/11/18 08:26:46;;;;;;;9.87;6.33;;;;;;;;;;10487074;28;21008;-68
2022/11/18 08:31:47;;;;;;;15.50;7.68;;;;;;;;;;10502329;28;20301;-68
2022/11/18 08:36:48;;;;;;;13.18;7.10;;;;;;;;;;10488179;28;20241;-68
2022/11/18 08:41:50;;;;;;;13.75;7.07;;;;;;;;;;10485000;28;20218;-68
2022/11/18 08:46:51;;;;;;;15.88;7.82;;;;;;;;;;10494805;28;20239;-71
2022/11/18 08:51:52;;;;;;;11.47;7.50;;;;;;;;;;10483529;28;20221;-70
2022/11/18 08:56:53;;;;;;;13.93;6.78;;;;;;;;;;10501193;28;20293;-70
2022/11/18 09:01:54;;;;;;;15.73;8.00;;;;;;;;;;10494468;28;20768;-69
2022/11/18 09:06:55;;;;;;;14.38;8.05;;;;;;;;;;10469738;28;20305;-71
2022/11/18 09:11:56;;;;;;;10.87;5.83;;;;;;;;;;10481139;28;20210;-70
2022/11/18 09:16:58;;;;;;;14.27;7.20;;;;;;;;;;10497795;28;20946;-67
2022/11/18 09:21:59;;;;;;;17.08;6.90;;;;;;;;;;10497475;28;20263;-68
2022/11/18 09:27:04;;;;;;;17.75;8.15;;;;;;;;;;10508432;28;20723;-68
2022/11/18 09:32:05;;;;;;;15.57;8.07;;;;;;;;;;10460128;28;20213;-71
2022/11/18 09:37:06;;;;;;;16.30;8.00;;;;;;;;;;10477434;28;20209;-69
2022/11/18 09:42:27;;;;;;;17.38;9.77;;;;;;;;;;10489021;28;20322;-68
2022/11/18 09:47:33;;;;;;;18.70;10.30;;;;;;;;;;10490214;28;20320;-70
2022/11/18 09:52:40;;;;;;;21.50;10.55;;;;;;;;;;10502137;28;20209;-68
2022/11/18 09:57:45;;;;;;;19.63;10.02;;;;;;;;;;10475707;28;20303;-69
2022/11/18 10:03:00;;;;;;;21.13;10.07;;;;;;;;;;10503315;28;20227;-69
2022/11/18 10:08:04;;;;;;;24.38;11.85;;;;;;;;;;10507193;28;20452;-69
2022/11/18 10:13:22;;;;;;;16.83;8.90;;;;;;;;;;10481824;28;20213;-69
2022/11/18 10:18:29;;;;;;;27.67;13.77;;;;;;;;;;10481213;28;20301;-69
2022/11/18 10:23:31;;;;;;;20.73;10.77;;;;;;;;;;10481293;28;20216;-67
2022/11/18 10:28:32;;;;;;;24.17;11.15;;;;;;;;;;10501411;28;20287;-70
2022/11/18 10:33:33;;;;;;;23.05;12.10;;;;;;;;;;10480234;28;20324;-71
2022/11/18 10:38:34;;;;;;;22.95;11.90;;;;;;;;;;10459031;28;20983;-72
2022/11/18 10:43:55;;;;;;;25.85;11.75;;;;;;;;;;10484881;28;20221;-71
2022/11/18 10:49:08;;;;;;;23.33;10.43;;;;;;;;;;10476082;28;20225;-70
2022/11/18 10:54:14;;;;;;;23.67;10.97;;;;;;;;;;10458001;28;20291;-71
2022/11/18 10:59:25;;;;;;;17.70;9.95;;;;;;;;;;10471145;28;20297;-72
2022/11/18 11:04:26;;;;;;;18.95;9.35;;;;;;;;;;10482500;28;20210;-71
2022/11/18 11:09:28;;;;;;;22.95;10.35;;;;;;;;;;10487092;28;20228;-71
2022/11/18 11:14:32;;;;;;;21.40;10.32;;;;;;;;;;10489048;28;20225;-71
2022/11/18 11:19:36;;;;;;;22.70;10.65;;;;;;;;;;10471443;28;20252;-72
2022/11/18 11:24:38;;;;;;;20.63;10.25;;;;;;;;;;10480931;28;20263;-71
2022/11/18 11:29:48;;;;;;;20.63;9.37;;;;;;;;;;10481789;28;20201;-71
2022/11/18 11:35:01;;;;;;;20.17;9.97;;;;;;;;;;10491857;28;20267;-71
2022/11/18 11:40:08;;;;;;;20.58;10.57;;;;;;;;;;10477451;28;20218;-71
2022/11/18 11:45:09;;;;;;;27.15;11.88;;;;;;;;;;10487678;28;20292;-72
2022/11/18 11:50:25;;;;;;;23.83;11.23;;;;;;;;;;10472595;28;20174;-71
2022/11/18 11:55:33;;;;;;;22.00;11.47;;;;;;;;;;10473804;28;20220;-70
2022/11/18 12:00:39;;;;;;;24.17;13.10;;;;;;;;;;10491922;28;20250;-69
2022/11/18 12:05:41;;;;;;;24.23;10.98;;;;;;;;;;10496085;28;20210;-69
2022/11/18 12:10:43;;;;;;;19.55;9.40;;;;;;;;;;10475002;28;20217;-69
2022/11/18 12:15:44;;;;;;;20.90;10.80;;;;;;;;;;10473597;28;20221;-70
2022/11/18 12:20:47;;;;;;;21.83;11.07;;;;;;;;;;10490411;28;20229;-68
2022/11/18 12:25:48;;;;;;;17.80;10.20;;;;;;;;;;10485878;28;20872;-69
2022/11/18 12:30:49;;;;;;;33.70;12.03;;;;;;;;;;10491488;28;20206;-70
2022/11/18 12:35:51;;;;;;;23.03;10.30;;;;;;;;;;10492682;28;20217;-69
2022/11/18 12:40:52;;;;;;;21.77;10.10;;;;;;;;;;10487793;28;20292;-70
2022/11/18 12:45:54;;;;;;;20.87;10.27;;;;;;;;;;10473635;28;21789;-68
2022/11/18 12:50:56;;;;;;;22.00;10.70;;;;;;;;;;10475227;28;20696;-68
2022/11/18 12:55:57;;;;;;;23.63;11.07;;;;;;;;;;10492145;28;20696;-68
2022/11/18 13:01:06;;;;;;;17.52;9.23;;;;;;;;;;10493356;28;20283;-68
2022/11/18 13:06:21;;;;;;;31.43;14.93;;;;;;;;;;10481049;28;20724;-68
2022/11/18 13:27:51;;;;;;;19.70;10.37;;;;;;;;;;10497347;28;20236;-69
2022/11/18 13:32:54;;;;;;;17.60;9.63;;;;;;;;;;10498428;28;20301;-68
2022/11/18 13:37:55;;;;;;;22.63;10.57;;;;;;;;;;10504836;28;20234;-69
2022/11/18 13:42:56;;;;;;;13.55;8.95;;;;;;;;;;10500415;28;20228;-69
2022/11/18 13:48:01;;;;;;;14.63;7.87;;;;;;;;;;10468673;28;20218;-70
2022/11/18 13:53:21;;;;;;;22.63;10.93;;;;;;;;;;10499384;28;20210;-69
2022/11/18 13:58:32;;;;;;;21.00;9.90;;;;;;;;;;10492786;28;20214;-69
2022/11/18 14:03:35;;;;;;;18.77;9.30;;;;;;;;;;10475353;28;20225;-71
2022/11/18 14:08:37;;;;;;;18.52;8.23;;;;;;;;;;10498896;28;20229;-70
2022/11/18 14:13:48;;;;;;;14.57;8.00;;;;;;;;;;10486592;28;20210;-71
2022/11/18 14:18:51;;;;;;;12.57;7.55;;;;;;;;;;10475988;28;20953;-71
2022/11/18 14:23:52;;;;;;;9.33;5.67;;;;;;;;;;10498477;28;20673;-70
2022/11/18 14:29:00;;;;;;;10.80;6.77;;;;;;;;;;10495192;28;20720;-70
2022/11/18 14:34:23;;;;;;;11.17;5.70;;;;;;;;;;10500827;28;20931;-70
2022/11/18 14:39:25;;;;;;;11.20;6.80;;;;;;;;;;10487477;28;20685;-71
2022/11/18 14:44:27;;;;;;;11.20;6.17;;;;;;;;;;10492965;28;20640;-71
2022/11/18 14:49:31;;;;;;;9.07;6.05;;;;;;;;;;10493292;28;20556;-71
2022/11/18 14:54:32;;;;;;;7.30;5.13;;;;;;;;;;10487971;28;20245;-69
2022/11/18 14:59:33;;;;;;;12.50;6.20;;;;;;;;;;10501496;28;20209;-68
2022/11/18 15:04:34;;;;;;;9.00;5.97;;;;;;;;;;10481929;28;20690;-72
2022/11/18 15:09:36;;;;;;;6.43;5.20;;;;;;;;;;10489571;28;20219;-81
2022/11/18 15:14:37;;;;;;;9.40;5.40;;;;;;;;;;10495096;28;20209;-68
2022/11/18 15:19:40;;;;;;;7.90;5.83;;;;;;;;;;10487234;28;20233;-71
2022/11/18 15:24:41;;;;;;;11.63;5.75;;;;;;;;;;10501399;28;20220;-70
2022/11/18 15:29:42;;;;;;;12.70;6.93;;;;;;;;;;10500651;28;20209;-69
2022/11/18 15:34:43;;;;;;;9.97;6.70;;;;;;;;;;10498808;28;20232;-69
2022/11/18 15:39:45;;;;;;;12.10;6.35;;;;;;;;;;10498725;28;20210;-71
2022/11/18 15:44:46;;;;;;;13.00;6.53;;;;;;;;;;10465179;28;20217;-75
2022/11/18 15:49:47;;;;;;;22.03;7.73;;;;;;;;;;10502473;28;20224;-71
2022/11/18 15:54:48;;;;;;;12.00;7.00;;;;;;;;;;10501280;28;20216;-71
2022/11/18 15:59:49;;;;;;;14.23;7.78;;;;;;;;;;10488816;28;20209;-70
2022/11/18 16:04:51;;;;;;;13.47;5.73;;;;;;;;;;10489380;28;20230;-70
2022/11/18 16:20:32;;;;;;;11.60;6.30;;;;;;;;;;10496923;28;20287;-71
2022/11/18 16:25:33;;;;;;;8.33;6.40;;;;;;;;;;10500398;28;20223;-71
2022/11/18 16:35:54;;;;;;;6.70;6.07;;;;;;;;;;10498520;28;20206;-71
2022/11/18 16:40:59;;;;;;;13.17;6.93;;;;;;;;;;10502765;28;20284;-72
2022/11/18 16:46:02;;;;;;;9.02;5.95;;;;;;;;;;10492994;28;20217;-72
2022/11/18 16:51:16;;;;;;;11.20;6.27;;;;;;;;;;10503013;28;20214;-71
2022/11/18 16:56:17;;;;;;;9.90;6.65;;;;;;;;;;10506946;28;20209;-71
2022/11/18 17:01:18;;;;;;;11.07;6.37;;;;;;;;;;10508344;28;20210;-71
2022/11/18 17:06:20;;;;;;;7.33;5.77;;;;;;;;;;10509865;28;20694;-70
2022/11/18 17:11:21;;;;;;;9.80;7.03;;;;;;;;;;10505111;28;20217;-70
2022/11/18 17:16:23;;;;;;;10.02;6.38;;;;;;;;;;10510634;28;20213;-71
2022/11/18 17:21:25;;;;;;;12.40;5.77;;;;;;;;;;10505415;28;20667;-69
2022/11/18 17:26:26;;;;;;;10.65;7.15;;;;;;;;;;10490020;28;20228;-71
2022/11/18 17:31:28;;;;;;;12.30;5.23;;;;;;;;;;10507100;28;20698;-71
2022/11/18 17:36:29;;;;;;;6.13;5.47;;;;;;;;;;10494419;28;20206;-72
2022/11/18 17:46:50;;;;;;;5.17;4.00;;;;;;;;;;10503368;28;20224;-69
2022/11/18 17:51:51;;;;;;;4.53;4.07;;;;;;;;;;10507403;28;20213;-71
2022/11/18 17:56:52;;;;;;;7.20;4.67;;;;;;;;;;10482161;28;20220;-71
2022/11/18 18:01:54;;;;;;;6.87;4.63;;;;;;;;;;10507861;28;20248;-74
2022/11/18 18:06:55;;;;;;;7.77;5.03;;;;;;;;;;10491050;28;20214;-74
2022/11/18 18:11:56;;;;;;;6.43;5.43;;;;;;;;;;10494926;28;20212;-71
2022/11/18 18:16:59;;;;;;;6.37;4.47;;;;;;;;;;10499222;28;20213;-72
2022/11/18 18:22:00;;;;;;;8.57;5.07;;;;;;;;;;10470433;28;20228;-71
2022/11/18 18:27:01;;;;;;;7.90;3.97;;;;;;;;;;10501242;28;20217;-71
2022/11/18 18:32:02;;;;;;;6.43;5.10;;;;;;;;;;10488618;28;20217;-69
2022/11/18 18:37:04;;;;;;;6.57;3.23;;;;;;;;;;10500601;28;20373;-72
2022/11/18 18:42:05;;;;;;;4.23;3.53;;;;;;;;;;10494558;28;20325;-70
2022/11/18 18:47:06;;;;;;;4.93;4.00;;;;;;;;;;10492179;28;20221;-70
2022/11/18 18:52:07;;;;;;;5.67;3.93;;;;;;;;;;10481232;28;20216;-69
2022/11/18 18:57:08;;;;;;;4.70;3.67;;;;;;;;;;10497372;28;20237;-73
2022/11/18 19:02:11;;;;;;;5.13;3.70;;;;;;;;;;10485277;28;20860;-72
2022/11/18 19:07:13;;;;;;;5.53;4.30;;;;;;;;;;10484910;28;20248;-69
2022/11/18 19:17:34;;;;;;;4.20;3.80;;;;;;;;;;10502056;28;20209;-71
2022/11/18 19:22:35;;;;;;;6.43;4.40;;;;;;;;;;10473185;28;20224;-73
2022/11/18 19:27:38;;;;;;;7.50;4.00;;;;;;;;;;10492921;28;20311;-71
2022/11/18 19:32:40;;;;;;;6.90;4.10;;;;;;;;;;10494371;28;20210;-70
2022/11/18 19:37:42;;;;;;;5.07;4.10;;;;;;;;;;10502419;28;20222;-69
2022/11/18 19:42:43;;;;;;;8.10;4.67;;;;;;;;;;10497676;28;20243;-71
2022/11/18 19:47:44;;;;;;;9.67;4.77;;;;;;;;;;10487898;28;20214;-70
2022/11/18 19:52:47;;;;;;;7.10;5.00;;;;;;;;;;10502248;28;20351;-72
2022/11/18 19:57:48;;;;;;;8.77;5.00;;;;;;;;;;10482648;28;20220;-70
2022/11/18 20:02:49;;;;;;;4.80;3.20;;;;;;;;;;10508691;28;20236;-69
2022/11/18 20:07:54;;;;;;;13.37;6.20;;;;;;;;;;10492150;28;20266;-69
2022/11/18 20:12:56;;;;;;;12.23;5.70;;;;;;;;;;10478284;28;20225;-69
2022/11/18 20:17:57;;;;;;;8.20;4.57;;;;;;;;;;10479817;28;20744;-68
2022/11/18 20:22:58;;;;;;;6.30;4.30;;;;;;;;;;10490409;28;20210;-68
2022/11/18 20:28:00;;;;;;;4.33;3.93;;;;;;;;;;10502806;28;20226;-68
2022/11/18 20:33:01;;;;;;;6.70;4.20;;;;;;;;;;10469950;28;20278;-70
2022/11/18 20:38:02;;;;;;;7.20;4.33;;;;;;;;;;10502891;28;20242;-70
2022/11/18 20:43:12;;;;;;;3.57;3.27;;;;;;;;;;10499987;28;20233;-68
2022/11/18 20:48:13;;;;;;;6.70;3.37;;;;;;;;;;10508351;28;20726;-73
2022/11/18 20:53:15;;;;;;;4.50;3.13;;;;;;;;;;10503041;28;20332;-72
2022/11/18 20:58:17;;;;;;;4.17;3.73;;;;;;;;;;10475026;28;22467;-72
2022/11/18 21:03:20;;;;;;;4.00;3.23;;;;;;;;;;10491648;28;20205;-71
2022/11/18 21:08:21;;;;;;;7.30;3.40;;;;;;;;;;10477692;28;20209;-71
2022/11/18 21:18:42;;;;;;;5.57;3.67;;;;;;;;;;10486292;28;20248;-72
2022/11/18 21:23:43;;;;;;;4.70;3.93;;;;;;;;;;10505267;28;20210;-72
2022/11/18 21:28:44;;;;;;;4.67;3.27;;;;;;;;;;10503362;28;20736;-72
2022/11/18 21:33:49;;;;;;;4.93;3.33;;;;;;;;;;10499908;28;20308;-72
2022/11/18 21:38:50;;;;;;;5.20;3.03;;;;;;;;;;10489712;28;20209;-73
2022/11/18 21:43:52;;;;;;;4.20;3.23;;;;;;;;;;10493157;28;20236;-72
2022/11/18 21:48:53;;;;;;;3.97;3.50;;;;;;;;;;10497578;28;21158;-73
2022/11/18 21:53:54;;;;;;;3.70;3.03;;;;;;;;;;10490365;28;20668;-73
2022/11/18 21:58:56;;;;;;;5.53;4.20;;;;;;;;;;10506312;28;20708;-73
2022/11/18 22:03:58;;;;;;;3.57;3.23;;;;;;;;;;10494882;28;20210;-72
2022/11/18 22:09:00;;;;;;;5.57;3.60;;;;;;;;;;10489373;28;20788;-71
2022/11/18 22:14:03;;;;;;;12.27;5.83;;;;;;;;;;10513072;28;20217;-72
2022/11/18 22:19:04;;;;;;;13.77;5.30;;;;;;;;;;10487658;28;20237;-72
2022/11/18 22:24:05;;;;;;;7.53;4.50;;;;;;;;;;10506925;28;20217;-71
2022/11/18 22:29:07;;;;;;;11.07;4.93;;;;;;;;;;10505190;28;20271;-72
2022/11/18 22:34:08;;;;;;;8.37;4.53;;;;;;;;;;10489714;28;20697;-72
2022/11/18 22:39:10;;;;;;;9.03;4.33;;;;;;;;;;10500649;28;20659;-72
2022/11/18 22:44:12;;;;;;;5.93;3.80;;;;;;;;;;10491710;28;20245;-72
2022/11/18 22:49:15;;;;;;;7.50;4.40;;;;;;;;;;10502557;28;20217;-71
2022/11/18 22:54:16;;;;;;;6.50;4.03;;;;;;;;;;10489568;28;20707;-71
2022/11/18 22:59:17;;;;;;;6.23;4.07;;;;;;;;;;10505588;28;20221;-71
2022/11/18 23:04:18;;;;;;;6.43;3.97;;;;;;;;;;10481991;28;20240;-71
2022/11/18 23:09:19;;;;;;;11.27;4.03;;;;;;;;;;10505392;28;20712;-71
2022/11/18 23:14:21;;;;;;;5.87;4.60;;;;;;;;;;10501241;28;20218;-72
2022/11/18 23:19:22;;;;;;;3.53;2.90;;;;;;;;;;10502165;28;20229;-71
2022/11/18 23:24:24;;;;;;;3.30;2.97;;;;;;;;;;10502470;28;20312;-70
2022/11/18 23:29:25;;;;;;;4.23;3.80;;;;;;;;;;10489713;28;20231;-71
2022/11/18 23:34:26;;;;;;;5.73;3.67;;;;;;;;;;10499685;28;20214;-72
2022/11/18 23:39:28;;;;;;;6.63;3.07;;;;;;;;;;10501942;28;20263;-71
2022/11/18 23:44:44;;;;;;;5.83;3.33;;;;;;;;;;10500578;28;20644;-71
2022/11/18 23:49:45;;;;;;;5.50;3.60;;;;;;;;;;10502165;28;20598;-70
2022/11/18 23:54:48;;;;;;;5.53;3.90;;;;;;;;;;10499390;28;20209;-71
2022/11/18 23:59:49;;;;;;;6.13;3.80;;;;;;;;;;10499072;28;20216;-71
